createdAt,value
2022-09-11T00:02:47.420Z,12.45
2022-09-11T00:07:49.028Z,12.44
2022-09-11T00:12:50.895Z,12.37
2022-09-11T00:17:52.410Z,12.23
2022-09-11T00:22:54.390Z,12.00
2022-09-11T00:27:56.053Z,11.88
2022-09-11T00:32:58.237Z,11.93
2022-09-11T00:37:59.803Z,12.04
2022-09-11T00:43:01.427Z,12.24
2022-09-11T00:48:04.037Z,12.37
2022-09-11T00:53:09.874Z,12.14
2022-09-11T00:58:16.524Z,11.93
2022-09-11T01:03:19.471Z,11.90
2022-09-11T01:08:22.667Z,11.67
2022-09-11T01:13:35.813Z,11.53
2022-09-11T01:19:03.981Z,11.36
2022-09-11T01:24:31.307Z,11.21
2022-09-11T01:29:52.498Z,11.22
2022-09-11T01:35:08.253Z,11.12
2022-09-11T01:40:21.614Z,10.97
2022-09-11T01:45:25.610Z,10.90
2022-09-11T01:50:30.510Z,10.90
2022-09-11T01:55:40.171Z,10.95
2022-09-11T02:00:45.959Z,10.97
2022-09-11T02:05:51.971Z,11.11
2022-09-11T02:11:09.069Z,11.06
2022-09-11T02:16:38.693Z,11.01
2022-09-11T02:21:40.723Z,10.82
2022-09-11T02:26:47.267Z,10.89
2022-09-11T02:31:49.281Z,10.96
2022-09-11T02:37:06.568Z,11.00
2022-09-11T02:42:12.320Z,11.10
2022-09-11T02:47:42.195Z,11.06
2022-09-11T02:52:56.322Z,11.05
2022-09-11T02:58:30.657Z,11.15
2022-09-11T03:03:46.190Z,11.14
2022-09-11T03:08:48.913Z,11.15
2022-09-11T03:13:51.917Z,11.37
2022-09-11T03:18:54.119Z,11.54
2022-09-11T03:23:56.069Z,11.70
2022-09-11T03:28:57.695Z,11.87
2022-09-11T03:33:59.543Z,12.12
2022-09-11T03:39:01.785Z,12.20
2022-09-11T03:44:04.930Z,12.22
2022-09-11T03:49:06.570Z,12.25
2022-09-11T03:54:08.234Z,12.30
2022-09-11T03:59:10.111Z,12.30
2022-09-11T04:04:13.123Z,12.35
2022-09-11T04:09:17.692Z,12.50
2022-09-11T04:14:23.818Z,12.59
2022-09-11T04:19:27.206Z,12.64
2022-09-11T04:24:29.192Z,12.71
2022-09-11T04:29:33.997Z,12.52
2022-09-11T04:34:35.910Z,12.40
2022-09-11T04:39:37.714Z,12.27
2022-09-11T04:44:39.319Z,12.18
2022-09-11T04:49:41.083Z,12.15
2022-09-11T04:54:46.162Z,12.02
2022-09-11T04:59:51.601Z,12.14
2022-09-11T05:04:53.447Z,12.11
2022-09-11T05:09:55.185Z,12.03
2022-09-11T05:14:57.233Z,12.04
2022-09-11T05:19:58.911Z,12.12
2022-09-11T05:25:01.029Z,12.30
2022-09-11T05:30:03.586Z,12.60
2022-09-11T05:35:07.164Z,12.72
2022-09-11T05:40:10.052Z,12.79
2022-09-11T05:45:11.944Z,13.06
2022-09-11T05:50:14.736Z,13.45
2022-09-11T05:55:16.985Z,13.68
2022-09-11T06:00:19.430Z,13.77
2022-09-11T06:05:30.674Z,13.70
2022-09-11T06:10:34.200Z,13.73
2022-09-11T06:15:46.691Z,13.78
2022-09-11T06:21:02.910Z,13.86
2022-09-11T06:26:13.130Z,13.99
2022-09-11T06:31:20.102Z,14.01
2022-09-11T06:36:26.730Z,14.34
2022-09-11T06:41:30.328Z,14.62
2022-09-11T06:46:37.865Z,15.05
2022-09-11T06:51:40.074Z,15.10
2022-09-11T06:56:42.209Z,15.13
2022-09-11T07:01:44.430Z,15.23
2022-09-11T07:06:47.217Z,14.72
2022-09-11T07:11:49.962Z,14.33
2022-09-11T07:16:55.046Z,14.11
2022-09-11T07:21:56.648Z,13.83
2022-09-11T07:27:00.854Z,13.77
2022-09-11T07:32:08.554Z,13.81
2022-09-11T07:37:10.199Z,14.02
2022-09-11T07:42:13.192Z,14.42
2022-09-11T07:47:16.880Z,14.62
2022-09-11T07:52:22.776Z,14.75
2022-09-11T07:57:32.207Z,15.14
2022-09-11T08:02:37.302Z,15.57
2022-09-11T08:07:39.014Z,15.56
2022-09-11T08:12:41.956Z,15.49
2022-09-11T08:17:43.514Z,15.38
2022-09-11T08:22:45.178Z,15.21
2022-09-11T08:27:46.953Z,14.80
2022-09-11T08:32:52.151Z,15.15
2022-09-11T08:37:55.593Z,15.86
2022-09-11T08:43:01.888Z,16.15
2022-09-11T08:48:07.008Z,16.12
2022-09-11T08:53:15.430Z,16.70
2022-09-11T08:58:29.760Z,16.92
2022-09-11T09:03:57.105Z,17.31
2022-09-11T09:09:10.959Z,17.52
2022-09-11T09:14:32.043Z,17.46
2022-09-11T09:19:39.952Z,18.06
2022-09-11T09:24:49.632Z,18.20
2022-09-11T09:29:55.806Z,18.16
2022-09-11T09:35:05.126Z,18.68
2022-09-11T09:40:10.383Z,18.62
2022-09-11T09:45:33.772Z,17.91
2022-09-11T09:50:39.675Z,17.30
2022-09-11T09:55:42.698Z,17.16
2022-09-11T10:00:45.103Z,17.12
2022-09-11T10:05:48.962Z,16.64
2022-09-11T10:10:59.223Z,16.19
2022-09-11T10:16:03.886Z,15.57
2022-09-11T10:21:11.651Z,15.22
2022-09-11T10:26:17.158Z,15.18
2022-09-11T10:31:18.975Z,15.73
2022-09-11T10:36:27.165Z,15.88
2022-09-11T10:41:34.234Z,16.17
2022-09-11T10:46:38.104Z,16.22
2022-09-11T10:51:46.778Z,16.11
2022-09-11T10:57:05.306Z,16.17
2022-09-11T11:02:36.972Z,16.31
2022-09-11T11:07:58.921Z,16.03
2022-09-11T11:13:36.027Z,15.34
2022-09-11T11:19:10.832Z,15.24
2022-09-11T11:24:50.077Z,15.10
2022-09-11T11:30:21.771Z,14.93
2022-09-11T11:35:29.132Z,15.09
2022-09-11T11:40:32.525Z,15.75
2022-09-11T11:45:41.956Z,16.23
2022-09-11T11:50:59.510Z,15.66
2022-09-11T11:56:17.711Z,15.55
2022-09-11T12:01:48.697Z,15.45
2022-09-11T12:06:51.043Z,15.96
2022-09-11T12:11:55.285Z,16.10
2022-09-11T12:16:57.133Z,17.18
2022-09-11T12:22:11.059Z,17.60
2022-09-11T12:27:33.683Z,17.59
2022-09-11T12:32:55.106Z,17.71
2022-09-11T12:38:02.659Z,17.27
2022-09-11T12:43:20.450Z,17.06
2022-09-11T12:48:25.990Z,17.72
2022-09-11T12:53:31.218Z,17.65
2022-09-11T12:58:40.779Z,18.32
2022-09-11T13:03:53.362Z,18.83
2022-09-11T13:09:02.086Z,19.28
2022-09-11T13:14:06.647Z,19.75
2022-09-11T13:19:14.268Z,20.45
2022-09-11T13:24:27.015Z,20.71
2022-09-11T13:29:30.459Z,20.73
2022-09-11T13:34:35.946Z,20.13
2022-09-11T13:39:42.221Z,19.58
2022-09-11T13:44:47.242Z,19.00
2022-09-11T13:49:53.275Z,18.51
2022-09-11T13:55:03.371Z,18.12
2022-09-11T14:00:05.197Z,17.21
2022-09-11T14:05:16.823Z,17.02
2022-09-11T14:10:22.473Z,17.02
2022-09-11T14:15:33.656Z,17.06
2022-09-11T14:20:41.514Z,16.73
2022-09-11T14:26:08.499Z,17.21
2022-09-11T14:31:13.166Z,17.96
2022-09-11T14:36:20.085Z,17.86
2022-09-11T14:41:21.717Z,17.63
2022-09-11T14:46:23.230Z,17.51
2022-09-11T14:51:24.790Z,18.05
2022-09-11T14:56:26.445Z,19.07
2022-09-11T15:01:28.152Z,19.64
2022-09-11T15:06:31.108Z,19.26
2022-09-11T15:11:37.418Z,18.44
2022-09-11T15:16:42.295Z,17.76
2022-09-11T15:21:43.843Z,17.33
2022-09-11T15:26:46.460Z,17.25
2022-09-11T15:32:00.644Z,17.40
2022-09-11T15:37:02.558Z,16.99
2022-09-11T15:42:04.338Z,16.84
2022-09-11T15:47:06.151Z,16.73
2022-09-11T15:52:07.898Z,16.58
2022-09-11T15:57:09.497Z,16.55
2022-09-11T16:02:11.998Z,16.35
2022-09-11T16:07:14.193Z,16.13
2022-09-11T16:12:15.845Z,16.01
2022-09-11T16:17:20.537Z,15.74
2022-09-11T16:22:22.174Z,15.54
2022-09-11T16:27:24.400Z,15.48
2022-09-11T16:32:31.781Z,15.22
2022-09-11T16:37:34.028Z,15.10
2022-09-11T16:42:35.768Z,14.91
2022-09-11T16:47:37.336Z,14.87
2022-09-11T16:52:39.279Z,14.75
2022-09-11T16:57:40.871Z,14.53
2022-09-11T17:02:42.395Z,14.23
2022-09-11T17:07:43.900Z,13.93
2022-09-11T17:12:45.410Z,13.62
2022-09-11T17:17:47.315Z,13.37
2022-09-11T17:22:48.864Z,13.13
2022-09-11T17:27:50.838Z,12.90
2022-09-11T17:32:52.674Z,12.91
2022-09-11T17:37:54.480Z,12.66
2022-09-11T17:42:55.981Z,12.53
2022-09-11T17:47:57.733Z,12.47
2022-09-11T17:52:59.277Z,12.37
2022-09-11T17:58:00.809Z,12.32
2022-09-11T18:03:02.308Z,12.09
2022-09-11T18:08:03.843Z,11.92
2022-09-11T18:13:05.530Z,11.78
2022-09-11T18:18:07.054Z,11.63
2022-09-11T18:23:09.795Z,11.48
2022-09-11T18:28:11.847Z,11.32
2022-09-11T18:33:14.540Z,11.29
2022-09-11T18:38:16.111Z,11.25
2022-09-11T18:43:18.031Z,11.17
2022-09-11T18:48:20.053Z,11.13
2022-09-11T18:53:21.949Z,11.09
2022-09-11T18:58:23.506Z,10.93
2022-09-11T19:03:30.063Z,10.85
2022-09-11T19:08:32.355Z,10.87
2022-09-11T19:13:33.957Z,10.87
2022-09-11T19:18:37.010Z,10.83
2022-09-11T19:23:41.482Z,10.69
2022-09-11T19:28:44.673Z,10.65
2022-09-11T19:33:46.368Z,10.69
2022-09-11T19:38:49.677Z,10.77
2022-09-11T19:43:51.336Z,10.84
2022-09-11T19:48:56.694Z,10.96
2022-09-11T19:54:00.469Z,11.05
2022-09-11T19:59:03.063Z,11.07
2022-09-11T20:04:04.874Z,11.05
2022-09-11T20:14:29.119Z,11.30
2022-09-11T20:19:30.679Z,11.47
2022-09-11T20:24:32.217Z,11.47
2022-09-11T20:29:33.974Z,11.27
2022-09-11T20:34:35.521Z,11.40
2022-09-11T20:39:38.663Z,11.78
2022-09-11T20:44:40.283Z,12.13
2022-09-11T20:49:42.344Z,12.32
2022-09-11T20:54:44.546Z,12.49
2022-09-11T20:59:46.437Z,12.51
2022-09-11T21:04:48.988Z,12.46
2022-09-11T21:09:50.567Z,12.50
2022-09-11T21:14:52.095Z,12.32
2022-09-11T21:19:57.287Z,12.14
2022-09-11T21:24:59.128Z,11.91
2022-09-11T21:30:00.713Z,11.56
2022-09-11T21:35:02.249Z,11.49
2022-09-11T21:40:04.840Z,11.49
2022-09-11T21:45:06.770Z,11.49
2022-09-11T21:50:08.817Z,11.47
2022-09-11T21:55:11.365Z,11.39
2022-09-11T22:00:14.076Z,11.16
2022-09-11T22:05:15.825Z,10.97
2022-09-11T22:10:17.432Z,10.85
2022-09-11T22:15:19.047Z,10.78
2022-09-11T22:20:20.920Z,10.80
2022-09-11T22:25:22.437Z,10.83
2022-09-11T22:30:24.066Z,10.74
2022-09-11T22:35:26.791Z,10.78
2022-09-11T22:40:28.380Z,10.66
2022-09-11T22:45:30.449Z,10.57
2022-09-11T22:50:33.287Z,10.48
2022-09-11T22:55:34.828Z,10.37
2022-09-11T23:00:36.712Z,10.35
2022-09-11T23:05:56.868Z,10.40
2022-09-11T23:11:01.049Z,10.50
2022-09-11T23:16:18.219Z,10.66
2022-09-11T23:21:19.850Z,10.75
2022-09-11T23:26:22.729Z,10.99
2022-09-11T23:31:28.581Z,11.28
2022-09-11T23:36:30.782Z,11.57
2022-09-11T23:41:33.747Z,11.70
2022-09-11T23:46:35.285Z,11.65
2022-09-11T23:51:36.825Z,11.69
2022-09-11T23:56:38.371Z,11.65
